Santa Rosa Beach, FL (32459)

11:50 PM CDT on March 26, 2017 (GMT -0500)
Spyglass Hill | | Change Station

Elev 40 ft 30.35 °N, 86.23 °W | Updated 24 seconds ago

Partly Cloudy
Partly Cloudy
67.3 °F
Feels Like 67.3 °F
N
0.0
Wind Variable Wind from SE
Gusts 0.0 mph

Today
High -- | Low -- °F
--% Chance of Precip.
Yesterday
High -- | Low -- °F
Precip. -- in
Pressure 30.07 in
Visibility 7.0 miles
Clouds Scattered Clouds 400 ft
Overcast 1400 ft
Dew Point 66 °F
Humidity 97%
Rainfall 0.00 in
Snow Depth Not available.
6:40 AM 7:00 PM
Waning Crescent, 1% visible
SPECI KDTS 270409Z AUTO 14003KT 7SM SCT004 OVC014 21/21 A3007 RMK AO2 T02110211 TSNO
Pressure 30.07 in
Visibility 7.0 miles
Clouds Scattered Clouds 400 ft
Overcast 1400 ft
Dew Point 66 °F
Humidity 97%
Rainfall 0.00 in
Snow Depth Not available.
6:40 AM 7:00 PM
Waning Crescent, 1% visible
SPECI KDTS 270409Z AUTO 14003KT 7SM SCT004 OVC014 21/21 A3007 RMK AO2 T02110211 TSNO

Get Severe Weather Alerts

Thanks for signing up!

Be on the lookout for a verification email in your inbox.

You'll start receiving the daily forecast at 8 AM.

×

10-Day Weather Forecast

Almanac

Astronomy

Mar. 26, 2017 Rise Set
Actual Time
Civil Twilight
Nautical Twilight
Astronomical Twilight
Moon
Length of Visible Light
Length of Day
Tomorrow will be .
, % of the Moon is Illuminated

Today's Extremes

State Highs State Lows

Community

WunderPhotos

Upload Photos

1,962,540 photos uploaded!

WunderBlog® & News

Nearby

Air Quality

  Air Quality AQ Index Pollutant
Not available.

Snow Depth

Station Depth Elevation

Earthquake Activity

City Distance Mag. Time & Date
Minimum magnitude displayed is 2.5.

Earthquake Activity

City Distance Mag. Time & Date
Minimum magnitude displayed is 2.5.

Coastal Water Temperatures

Place Temperature

Stations

Nearby Weather Stations

Station Location Temp. Windchill Dew Point Humidity Wind Precip. Elev Updated Type
                   

Watches & Warnings

There are currently no watches in effect.